createdAt,value
2022-11-09T00:01:05.551Z,13.10
2022-11-09T00:03:33.023Z,13.10
2022-11-09T00:06:01.175Z,13.10
2022-11-09T00:08:28.781Z,13.10
2022-11-09T00:10:56.098Z,13.10
2022-11-09T00:13:23.544Z,13.50
2022-11-09T00:15:50.777Z,13.10
2022-11-09T00:18:18.050Z,13.10
2022-11-09T00:20:48.099Z,13.10
2022-11-09T00:23:17.518Z,13.00
2022-11-09T00:25:45.008Z,13.00
2022-11-09T00:28:12.223Z,13.00
2022-11-09T00:30:40.061Z,12.90
2022-11-09T00:33:08.754Z,12.90
2022-11-09T00:35:38.844Z,12.90
2022-11-09T00:38:06.033Z,12.90
2022-11-09T00:40:33.276Z,13.00
2022-11-09T00:43:00.473Z,13.00
2022-11-09T00:45:27.667Z,12.90
2022-11-09T00:47:55.151Z,12.90
2022-11-09T00:50:22.405Z,12.90
2022-11-09T00:52:49.670Z,12.90
2022-11-09T00:55:16.898Z,12.80
2022-11-09T00:57:44.112Z,12.80
2022-11-09T01:00:12.342Z,12.80
2022-11-09T01:02:39.597Z,12.80
2022-11-09T01:05:07.200Z,12.80
2022-11-09T01:07:34.423Z,12.80
2022-11-09T01:10:01.569Z,12.80
2022-11-09T01:12:28.888Z,12.80
2022-11-09T01:14:56.066Z,12.80
2022-11-09T01:17:23.389Z,12.80
2022-11-09T01:19:50.955Z,12.70
2022-11-09T01:22:21.739Z,12.70
2022-11-09T01:24:48.904Z,12.70
2022-11-09T01:27:16.920Z,12.70
2022-11-09T01:29:44.129Z,12.70
2022-11-09T01:32:11.308Z,12.70
2022-11-09T01:34:38.349Z,12.70
2022-11-09T01:37:05.500Z,12.60
2022-11-09T01:39:32.764Z,12.60
2022-11-09T01:42:02.471Z,12.60
2022-11-09T01:44:30.517Z,12.60
2022-11-09T01:47:05.452Z,12.60
2022-11-09T01:49:46.890Z,12.60
2022-11-09T01:52:31.423Z,12.60
2022-11-09T01:55:13.639Z,12.60
2022-11-09T01:57:57.523Z,12.60
2022-11-09T02:00:24.797Z,12.50
2022-11-09T02:03:08.246Z,12.50
2022-11-09T02:05:38.902Z,12.50
2022-11-09T02:08:07.709Z,12.50
2022-11-09T02:10:47.184Z,12.40
2022-11-09T02:13:18.530Z,12.40
2022-11-09T02:15:46.265Z,12.40
2022-11-09T02:18:14.586Z,12.30
2022-11-09T02:20:54.247Z,12.30
2022-11-09T02:23:27.353Z,12.30
2022-11-09T02:26:05.323Z,12.30
2022-11-09T02:28:32.885Z,12.30
2022-11-09T02:31:01.058Z,12.30
2022-11-09T02:33:28.527Z,12.30
2022-11-09T02:35:55.887Z,12.20
2022-11-09T02:38:23.311Z,12.20
2022-11-09T02:40:52.748Z,12.20
2022-11-09T02:43:20.548Z,12.10
2022-11-09T02:45:49.042Z,12.10
2022-11-09T02:48:17.162Z,12.00
2022-11-09T02:50:44.268Z,12.00
2022-11-09T02:53:11.433Z,12.00
2022-11-09T02:55:42.459Z,11.90
2022-11-09T02:58:09.777Z,11.90
2022-11-09T03:00:37.634Z,11.90
2022-11-09T03:03:05.915Z,11.80
2022-11-09T03:05:33.172Z,11.80
2022-11-09T03:08:02.605Z,11.70
2022-11-09T03:10:33.561Z,11.70
2022-11-09T03:13:01.735Z,11.60
2022-11-09T03:15:29.262Z,11.60
2022-11-09T03:17:56.880Z,11.60
2022-11-09T03:20:25.036Z,11.60
2022-11-09T03:22:52.491Z,11.60
2022-11-09T03:25:20.155Z,11.50
2022-11-09T03:27:47.298Z,11.50
2022-11-09T03:30:15.171Z,11.40
2022-11-09T03:32:45.622Z,11.40
2022-11-09T03:35:15.402Z,11.30
2022-11-09T03:37:42.626Z,11.30
2022-11-09T03:40:11.092Z,11.30
2022-11-09T03:42:46.817Z,11.30
2022-11-09T03:45:16.096Z,11.30
2022-11-09T03:47:44.725Z,11.30
2022-11-09T03:50:14.783Z,11.30
2022-11-09T03:52:45.883Z,11.30
2022-11-09T03:55:14.206Z,11.20
2022-11-09T03:57:41.687Z,11.20
2022-11-09T04:00:10.248Z,11.20
2022-11-09T04:02:40.364Z,11.20
2022-11-09T04:05:08.853Z,11.20
2022-11-09T04:07:36.107Z,11.20
2022-11-09T04:10:04.354Z,11.10
2022-11-09T04:12:31.529Z,11.20
2022-11-09T04:14:58.591Z,11.20
2022-11-09T04:17:25.727Z,11.20
2022-11-09T04:19:52.813Z,11.20
2022-11-09T04:22:19.922Z,11.20
2022-11-09T04:24:47.075Z,11.30
2022-11-09T04:27:14.235Z,11.40
2022-11-09T04:29:41.490Z,11.40
2022-11-09T04:32:08.688Z,11.40
2022-11-09T04:34:35.795Z,11.50
2022-11-09T04:37:03.001Z,11.50
2022-11-09T04:39:30.239Z,11.60
2022-11-09T04:41:57.329Z,11.60
2022-11-09T04:44:24.601Z,11.70
2022-11-09T04:46:51.735Z,11.70
2022-11-09T04:49:18.998Z,11.80
2022-11-09T04:51:46.128Z,11.80
2022-11-09T04:54:13.453Z,11.80
2022-11-09T04:56:40.632Z,11.80
2022-11-09T04:59:07.702Z,11.80
2022-11-09T05:01:35.151Z,11.80
2022-11-09T05:04:02.321Z,11.90
2022-11-09T05:06:32.133Z,11.90
2022-11-09T05:09:09.250Z,11.90
2022-11-09T05:11:37.170Z,11.90
2022-11-09T05:14:04.522Z,12.00
2022-11-09T05:16:32.146Z,12.00
2022-11-09T05:18:59.315Z,12.00
2022-11-09T05:21:27.566Z,12.10
2022-11-09T05:24:00.513Z,12.10
2022-11-09T05:26:37.967Z,12.10
2022-11-09T05:29:09.742Z,12.10
2022-11-09T05:31:37.966Z,12.10
2022-11-09T05:34:07.342Z,12.10
2022-11-09T05:36:34.501Z,12.10
2022-11-09T05:39:01.871Z,12.00
2022-11-09T05:41:29.129Z,12.00
2022-11-09T05:43:56.281Z,12.00
2022-11-09T05:46:23.409Z,12.00
2022-11-09T05:48:50.514Z,12.10
2022-11-09T05:51:17.646Z,12.10
2022-11-09T05:53:46.715Z,12.10
2022-11-09T05:56:15.164Z,12.10
2022-11-09T05:58:42.997Z,12.00
2022-11-09T06:01:16.832Z,12.00
2022-11-09T06:03:44.593Z,12.10
2022-11-09T06:06:14.741Z,12.00
2022-11-09T06:08:42.617Z,12.10
2022-11-09T06:11:16.809Z,12.00
2022-11-09T06:13:49.202Z,12.00
2022-11-09T06:16:17.422Z,12.00
2022-11-09T06:18:44.519Z,12.10
2022-11-09T06:21:11.890Z,12.00
2022-11-09T06:23:38.961Z,12.10
2022-11-09T06:26:11.736Z,12.10
2022-11-09T06:28:40.159Z,12.10
2022-11-09T06:31:12.007Z,12.10
2022-11-09T06:33:39.381Z,12.00
2022-11-09T06:36:08.016Z,12.10
2022-11-09T06:38:35.612Z,12.10
2022-11-09T06:41:02.874Z,12.10
2022-11-09T06:43:30.477Z,12.00
2022-11-09T06:45:57.863Z,12.00
2022-11-09T06:48:25.430Z,12.00
2022-11-09T06:50:52.562Z,12.00
2022-11-09T06:53:20.068Z,12.00
2022-11-09T06:55:50.834Z,12.10
2022-11-09T06:58:19.724Z,12.10
2022-11-09T07:00:47.433Z,12.10
2022-11-09T07:03:21.793Z,12.10
2022-11-09T07:05:51.061Z,12.20
2022-11-09T07:08:19.436Z,12.20
2022-11-09T07:10:46.695Z,12.20
2022-11-09T07:13:14.108Z,12.30
2022-11-09T07:15:41.201Z,12.30
2022-11-09T07:18:12.430Z,12.30
2022-11-09T07:20:39.699Z,12.30
2022-11-09T07:23:06.851Z,12.40
2022-11-09T07:25:34.570Z,12.40
2022-11-09T07:28:08.460Z,12.40
2022-11-09T07:30:36.894Z,12.50
2022-11-09T07:33:11.549Z,12.50
2022-11-09T07:35:38.865Z,12.50
2022-11-09T07:38:06.472Z,12.60
2022-11-09T07:40:33.633Z,12.60
2022-11-09T07:43:01.826Z,12.60
2022-11-09T07:45:30.201Z,12.60
2022-11-09T07:47:59.257Z,12.70
2022-11-09T07:50:28.025Z,12.70
2022-11-09T07:52:56.550Z,12.70
2022-11-09T07:55:25.020Z,12.80
2022-11-09T07:58:08.437Z,12.80
2022-11-09T08:00:37.865Z,12.90
2022-11-09T08:03:05.991Z,12.80
2022-11-09T08:05:33.875Z,12.90
2022-11-09T08:08:05.258Z,13.00
2022-11-09T08:10:34.479Z,13.00
2022-11-09T08:13:08.479Z,13.10
2022-11-09T08:15:36.690Z,13.10
2022-11-09T08:18:12.958Z,13.20
2022-11-09T08:20:40.108Z,13.30
2022-11-09T08:23:11.973Z,13.40
2022-11-09T08:25:40.102Z,13.60
2022-11-09T08:28:13.401Z,13.70
2022-11-09T08:30:43.020Z,13.80
2022-11-09T08:33:10.351Z,14.00
2022-11-09T08:35:38.185Z,14.10
2022-11-09T08:38:06.269Z,14.20
2022-11-09T08:40:34.362Z,14.30
2022-11-09T08:43:08.200Z,14.50
2022-11-09T08:45:38.432Z,14.50
2022-11-09T08:48:08.129Z,14.50
2022-11-09T08:50:36.880Z,14.50
2022-11-09T08:53:05.256Z,14.50
2022-11-09T08:55:32.954Z,14.60
2022-11-09T08:58:02.388Z,14.60
2022-11-09T09:00:30.276Z,14.70
2022-11-09T09:02:57.932Z,14.80
2022-11-09T09:05:26.606Z,14.80
2022-11-09T09:07:54.102Z,14.90
2022-11-09T09:10:21.234Z,15.00
2022-11-09T09:12:49.003Z,15.00
2022-11-09T09:15:17.184Z,15.10
2022-11-09T09:17:44.880Z,15.10
2022-11-09T09:20:12.702Z,15.00
2022-11-09T09:22:41.335Z,15.10
2022-11-09T09:25:09.301Z,15.00
2022-11-09T09:27:36.551Z,15.00
2022-11-09T09:30:04.907Z,15.00
2022-11-09T09:32:32.156Z,14.90
2022-11-09T09:34:59.341Z,14.90
2022-11-09T09:37:26.438Z,14.90
2022-11-09T09:39:53.809Z,14.90
2022-11-09T09:42:30.970Z,15.00
2022-11-09T09:45:07.235Z,15.00
2022-11-09T09:47:51.446Z,15.00
2022-11-09T09:50:38.203Z,15.10
2022-11-09T09:53:37.263Z,15.10
2022-11-09T09:56:25.605Z,15.10
2022-11-09T09:59:07.327Z,15.20
2022-11-09T10:01:39.796Z,15.20
2022-11-09T10:04:36.811Z,15.40
2022-11-09T10:07:42.388Z,15.40
2022-11-09T10:10:44.610Z,15.50
2022-11-09T10:13:41.470Z,15.50
2022-11-09T10:16:33.494Z,15.50
2022-11-09T10:19:30.611Z,15.60
2022-11-09T10:22:24.280Z,15.60
2022-11-09T10:27:59.720Z,15.70
2022-11-09T10:30:29.357Z,15.80
2022-11-09T10:33:21.264Z,15.80
2022-11-09T10:36:21.966Z,15.90
2022-11-09T10:38:51.782Z,15.90
2022-11-09T10:41:47.135Z,16.10
2022-11-09T10:44:32.754Z,16.20
2022-11-09T10:47:19.057Z,16.20
2022-11-09T10:50:32.606Z,16.20
2022-11-09T10:53:30.502Z,16.10
2022-11-09T10:56:21.640Z,16.00
2022-11-09T10:59:39.388Z,16.00
2022-11-09T11:02:24.931Z,16.10
2022-11-09T11:05:11.834Z,16.10
2022-11-09T11:07:58.460Z,16.40
2022-11-09T11:10:44.327Z,16.40
2022-11-09T11:13:30.175Z,16.40
2022-11-09T11:16:33.559Z,16.30
2022-11-09T11:19:39.967Z,16.60
2022-11-09T11:22:27.445Z,16.80
2022-11-09T11:25:21.164Z,16.70
2022-11-09T11:28:29.536Z,16.50
2022-11-09T11:31:20.452Z,16.50
2022-11-09T11:34:26.634Z,16.50
2022-11-09T11:37:41.053Z,16.40
2022-11-09T11:41:05.482Z,16.30
2022-11-09T11:44:21.490Z,16.40
2022-11-09T11:47:25.874Z,17.00
2022-11-09T11:50:37.400Z,17.80
2022-11-09T11:53:43.050Z,18.10
2022-11-09T11:57:03.950Z,18.60
2022-11-09T12:00:15.691Z,19.60
2022-11-09T12:03:25.820Z,20.40
2022-11-09T12:06:49.743Z,20.10
2022-11-09T12:09:54.347Z,19.10
2022-11-09T12:13:27.102Z,18.30
2022-11-09T12:16:27.736Z,18.60
2022-11-09T12:19:35.615Z,17.00
2022-11-09T12:22:46.795Z,16.70
2022-11-09T12:26:32.656Z,16.60
2022-11-09T12:29:44.194Z,16.50
2022-11-09T12:32:36.545Z,16.40
2022-11-09T12:35:37.236Z,16.30
2022-11-09T12:38:36.630Z,16.20
2022-11-09T12:41:31.885Z,16.10
2022-11-09T12:44:25.504Z,16.20
2022-11-09T12:47:17.574Z,16.10
2022-11-09T12:50:04.812Z,15.90
2022-11-09T12:52:54.641Z,15.80
2022-11-09T12:56:01.996Z,15.80
2022-11-09T12:58:49.721Z,15.70
2022-11-09T13:01:35.720Z,15.70
2022-11-09T13:04:24.346Z,15.70
2022-11-09T13:07:19.688Z,15.70
2022-11-09T13:10:06.277Z,15.60
2022-11-09T13:13:19.555Z,15.60
2022-11-09T13:16:19.430Z,15.60
2022-11-09T13:19:08.768Z,15.60
2022-11-09T13:21:54.875Z,15.60
2022-11-09T13:25:02.251Z,15.90
2022-11-09T13:27:49.577Z,16.30
2022-11-09T13:30:42.634Z,16.60
2022-11-09T13:33:32.050Z,16.90
2022-11-09T13:36:20.256Z,17.10
2022-11-09T13:39:32.121Z,16.90
2022-11-09T13:42:33.174Z,16.80
2022-11-09T13:45:34.869Z,16.60
2022-11-09T13:48:29.619Z,16.50
2022-11-09T13:51:35.358Z,16.50
2022-11-09T13:54:34.898Z,16.50
2022-11-09T13:57:22.867Z,16.90
2022-11-09T14:00:23.451Z,16.90
2022-11-09T14:03:28.623Z,17.00
2022-11-09T14:06:14.300Z,16.90
2022-11-09T14:09:01.667Z,16.90
2022-11-09T14:12:32.094Z,16.80
2022-11-09T14:15:42.552Z,16.50
2022-11-09T14:18:48.953Z,16.30
2022-11-09T14:21:45.872Z,16.40
2022-11-09T14:24:35.069Z,16.60
2022-11-09T14:27:22.875Z,16.70
2022-11-09T14:30:23.870Z,16.90
2022-11-09T14:33:28.909Z,16.70
2022-11-09T14:36:14.746Z,16.10
2022-11-09T14:39:04.995Z,15.80
2022-11-09T14:41:52.079Z,15.40
2022-11-09T14:44:43.881Z,15.30
2022-11-09T14:47:36.608Z,15.10
2022-11-09T14:50:29.951Z,15.00
2022-11-09T14:53:38.373Z,14.80
2022-11-09T14:56:25.453Z,14.80
2022-11-09T14:59:18.189Z,14.80
2022-11-09T15:02:08.838Z,14.80
2022-11-09T15:04:57.052Z,14.60
2022-11-09T15:07:47.166Z,14.50
2022-11-09T15:10:34.178Z,14.40
2022-11-09T15:13:41.648Z,14.30
2022-11-09T15:16:31.334Z,14.20
2022-11-09T15:19:38.803Z,14.10
2022-11-09T15:22:53.901Z,14.10
2022-11-09T15:25:43.452Z,13.90
2022-11-09T15:28:30.975Z,13.90
2022-11-09T15:31:19.313Z,13.80
2022-11-09T15:34:26.967Z,13.70
2022-11-09T15:37:49.779Z,13.60
2022-11-09T15:40:35.803Z,13.50
2022-11-09T15:43:21.775Z,13.50
2022-11-09T15:46:07.995Z,13.40
2022-11-09T15:48:53.691Z,13.40
2022-11-09T15:51:39.301Z,13.30
2022-11-09T15:54:25.392Z,13.30
2022-11-09T15:57:16.753Z,13.20
2022-11-09T16:00:07.982Z,13.20
2022-11-09T16:02:57.251Z,13.10
2022-11-09T16:05:46.807Z,13.10
2022-11-09T16:08:32.829Z,13.10
2022-11-09T16:11:19.164Z,13.00
2022-11-09T16:14:04.821Z,12.90
2022-11-09T16:16:50.840Z,12.90
2022-11-09T16:19:39.695Z,12.90
2022-11-09T16:22:31.018Z,12.90
2022-11-09T16:25:17.007Z,12.80
2022-11-09T16:28:03.306Z,12.80
2022-11-09T16:30:49.361Z,12.80
2022-11-09T16:33:40.882Z,12.70
2022-11-09T16:36:26.929Z,12.60
2022-11-09T16:39:17.073Z,12.50
2022-11-09T16:42:08.202Z,12.50
2022-11-09T16:44:58.800Z,12.40
2022-11-09T16:47:49.523Z,12.40
2022-11-09T16:50:35.264Z,12.40
2022-11-09T16:53:26.565Z,12.40
2022-11-09T16:56:14.172Z,12.30
2022-11-09T16:59:00.787Z,12.30
2022-11-09T17:01:52.619Z,12.20
2022-11-09T17:04:38.694Z,12.20
2022-11-09T17:07:24.934Z,12.20
2022-11-09T17:10:12.113Z,12.20
2022-11-09T17:12:57.979Z,12.10
2022-11-09T17:15:46.909Z,12.10
2022-11-09T17:18:33.039Z,12.00
2022-11-09T17:21:18.993Z,12.00
2022-11-09T17:24:06.360Z,12.00
2022-11-09T17:26:52.112Z,12.00
2022-11-09T17:29:39.329Z,11.90
2022-11-09T17:32:28.332Z,11.80
2022-11-09T17:35:14.691Z,11.80
2022-11-09T17:38:00.271Z,11.80
2022-11-09T17:40:46.051Z,11.70
2022-11-09T17:43:34.538Z,11.70
2022-11-09T17:46:22.103Z,11.70
2022-11-09T17:49:10.241Z,11.80
2022-11-09T17:51:57.732Z,11.60
2022-11-09T17:54:43.722Z,11.60
2022-11-09T17:57:29.471Z,11.60
2022-11-09T18:00:18.750Z,11.50
2022-11-09T18:03:04.654Z,11.50
2022-11-09T18:05:50.444Z,11.50
2022-11-09T18:08:36.411Z,11.40
2022-11-09T18:11:22.066Z,11.50
2022-11-09T18:14:07.999Z,11.50
2022-11-09T18:16:54.015Z,11.50
2022-11-09T18:19:40.319Z,11.50
2022-11-09T18:22:26.087Z,11.50
2022-11-09T18:25:12.314Z,11.50
2022-11-09T18:27:58.197Z,11.50
2022-11-09T18:30:43.973Z,11.60
2022-11-09T18:33:30.506Z,11.60
2022-11-09T18:36:19.747Z,11.50
2022-11-09T18:39:05.585Z,11.50
2022-11-09T18:41:52.116Z,11.50
2022-11-09T18:44:37.899Z,11.50
2022-11-09T18:47:23.760Z,11.40
2022-11-09T18:50:09.818Z,11.30
2022-11-09T18:52:55.521Z,11.40
2022-11-09T18:55:41.327Z,11.40
2022-11-09T18:58:27.869Z,11.40
2022-11-09T19:01:15.270Z,11.30
2022-11-09T19:04:01.875Z,11.40
2022-11-09T19:06:47.783Z,11.40
2022-11-09T19:09:38.461Z,11.40
2022-11-09T19:12:25.470Z,11.40
2022-11-09T19:15:11.952Z,11.40
2022-11-09T19:17:58.037Z,11.50
2022-11-09T19:20:43.940Z,11.40
2022-11-09T19:23:34.340Z,11.40
2022-11-09T19:26:24.283Z,11.30
2022-11-09T19:29:12.136Z,11.30
2022-11-09T19:31:58.009Z,11.30
2022-11-09T19:34:46.192Z,11.30
2022-11-09T19:37:32.181Z,11.30
2022-11-09T19:40:17.964Z,11.40
2022-11-09T19:43:03.726Z,11.40
2022-11-09T19:45:49.377Z,11.40
2022-11-09T19:48:35.224Z,11.50
2022-11-09T19:51:20.776Z,11.50
2022-11-09T19:54:06.960Z,11.50
2022-11-09T19:56:52.343Z,11.50
2022-11-09T19:59:37.918Z,11.50
2022-11-09T20:02:23.981Z,11.50
2022-11-09T20:05:10.004Z,11.50
2022-11-09T20:07:55.723Z,11.50
2022-11-09T20:10:41.392Z,11.50
2022-11-09T20:13:26.861Z,11.50
2022-11-09T20:16:12.535Z,11.50
2022-11-09T20:18:58.390Z,11.50
2022-11-09T20:21:44.824Z,11.50
2022-11-09T20:24:30.847Z,11.50
2022-11-09T20:27:16.285Z,11.50
2022-11-09T20:30:02.295Z,11.50
2022-11-09T20:32:48.331Z,11.60
2022-11-09T20:35:34.321Z,11.60
2022-11-09T20:38:20.917Z,11.70
2022-11-09T20:41:10.298Z,11.70
2022-11-09T20:43:55.751Z,11.70
2022-11-09T20:46:41.362Z,11.70
2022-11-09T20:49:27.295Z,11.70
2022-11-09T20:52:13.400Z,11.70
2022-11-09T20:54:59.455Z,11.70
2022-11-09T20:57:45.211Z,11.70
2022-11-09T21:00:32.089Z,11.70
2022-11-09T21:03:17.908Z,11.70
2022-11-09T21:06:05.945Z,11.70
2022-11-09T21:08:54.761Z,11.80
2022-11-09T21:12:00.926Z,11.80
2022-11-09T21:14:46.841Z,11.90
2022-11-09T21:17:33.012Z,11.80
2022-11-09T21:20:18.652Z,11.80
2022-11-09T21:23:13.658Z,11.90
2022-11-09T21:26:18.995Z,12.00
2022-11-09T21:29:24.228Z,12.00
2022-11-09T21:32:12.228Z,12.00
2022-11-09T21:34:58.425Z,11.90
2022-11-09T21:37:44.200Z,11.90
2022-11-09T21:40:30.068Z,11.80
2022-11-09T21:43:16.752Z,11.90
2022-11-09T21:46:02.553Z,11.80
2022-11-09T21:48:48.519Z,11.80
2022-11-09T21:51:36.274Z,11.80
2022-11-09T21:54:23.020Z,11.70
2022-11-09T21:57:09.138Z,11.70
2022-11-09T21:59:54.699Z,11.70
2022-11-09T22:02:40.386Z,11.70
2022-11-09T22:05:25.965Z,11.70
2022-11-09T22:08:11.744Z,11.70
2022-11-09T22:11:44.743Z,11.70
2022-11-09T22:14:49.894Z,11.70
2022-11-09T22:17:36.802Z,11.70
2022-11-09T22:20:41.395Z,11.80
2022-11-09T22:23:27.079Z,11.70
2022-11-09T22:26:12.743Z,11.80
2022-11-09T22:28:59.450Z,11.80
2022-11-09T22:31:46.365Z,11.80
2022-11-09T22:34:32.146Z,11.80
2022-11-09T22:37:18.130Z,11.70
2022-11-09T22:40:04.388Z,11.80
2022-11-09T22:42:56.373Z,11.80
2022-11-09T22:45:42.263Z,11.80
2022-11-09T22:48:31.231Z,11.80
2022-11-09T22:51:17.987Z,11.80
2022-11-09T22:54:04.323Z,11.70
2022-11-09T22:56:49.874Z,11.70
2022-11-09T22:59:35.738Z,11.80
2022-11-09T23:02:21.228Z,11.80
2022-11-09T23:05:07.630Z,11.80
2022-11-09T23:07:55.771Z,11.80
2022-11-09T23:10:41.404Z,11.80
2022-11-09T23:13:27.355Z,11.80
2022-11-09T23:16:12.927Z,11.90
2022-11-09T23:18:58.671Z,11.80
2022-11-09T23:21:44.612Z,11.70
2022-11-09T23:24:49.065Z,11.70
2022-11-09T23:27:34.883Z,11.80
2022-11-09T23:30:21.319Z,11.80
2022-11-09T23:33:07.336Z,11.80
2022-11-09T23:35:53.067Z,11.80
2022-11-09T23:38:39.827Z,11.80
2022-11-09T23:41:25.488Z,11.80
2022-11-09T23:44:11.156Z,11.90
2022-11-09T23:46:56.943Z,11.80
2022-11-09T23:49:42.868Z,11.80
2022-11-09T23:52:28.338Z,11.80
2022-11-09T23:55:14.202Z,11.70
2022-11-09T23:58:04.046Z,11.90
